Time;durP1;ratioP1;P1;durP2;ratioP2;P2;SDS_P1;SDS_P2;PMS_P1;PMS_P2;Temp;Humidity;BMP_temperature;BMP_pressure;BME280_temperature;BME280_humidity;BME280_pressure;Samples;Min_cycle;Max_cycle;Signal;HPM_P1;HPM_P2
2024/01/04 00:01:23;;;;;;;;;37.25;31.75;;;;;9.98;69.20;100720.34;146605;600;46016;-76
2024/01/04 00:04:15;;;;;;;;;22.25;21.00;;;;;9.95;69.08;100721.06;146607;580;46008;-76
2024/01/04 00:07:13;;;;;;;;;22.00;20.50;;;;;9.92;69.29;100715.72;146604;590;46010;-76
2024/01/04 00:10:20;;;;;;;;;21.00;20.00;;;;;9.86;68.79;100720.56;146605;574;46008;-74
2024/01/04 00:13:38;;;;;;;;;20.00;18.25;;;;;9.79;69.59;100728.81;146601;634;47916;-79
2024/01/04 00:16:30;;;;;;;;;43.50;36.00;;;;;9.65;69.79;100712.53;146607;579;48008;-82
2024/01/04 00:19:23;;;;;;;;;64.50;50.50;;;;;9.56;69.83;100722.38;146607;584;47017;-91
2024/01/04 00:22:18;;;;;;;;;46.00;37.50;;;;;9.51;69.78;100721.25;146612;576;46008;-92
2024/01/04 00:25:19;;;;;;;;;22.75;21.75;;;;;9.49;70.77;100713.38;146601;621;47016;-84
2024/01/04 00:28:25;;;;;;;;;17.75;15.25;;;;;9.49;70.07;100711.69;146605;580;47008;-78
2024/01/04 00:31:23;;;;;;;;;23.75;20.50;;;;;9.45;70.57;100712.31;146602;579;46024;-86
2024/01/04 00:34:18;;;;;;;;;18.75;17.00;;;;;9.40;70.54;100723.22;146607;602;48020;-84
2024/01/04 00:37:13;;;;;;;;;19.50;17.25;;;;;9.36;70.86;100736.81;146605;604;46016;-83
2024/01/04 00:40:09;;;;;;;;;23.50;21.00;;;;;9.39;71.44;100731.78;146599;631;47008;-83
2024/01/04 00:43:03;;;;;;;;;27.75;21.75;;;;;9.39;71.75;100718.84;146605;628;47010;-84
2024/01/04 00:45:58;;;;;;;;;25.00;22.00;;;;;9.37;71.61;100711.00;146611;589;46020;-88
2024/01/04 00:48:50;;;;;;;;;22.25;20.25;;;;;9.38;71.87;100701.56;146600;635;47033;-80
2024/01/04 00:51:44;;;;;;;;;24.00;22.50;;;;;9.36;71.39;100698.88;146608;564;46008;-77
2024/01/04 00:54:44;;;;;;;;;17.75;17.75;;;;;9.37;71.09;100692.88;146605;615;46016;-78
2024/01/04 00:57:50;;;;;;;;;16.00;14.00;;;;;9.41;71.84;100688.78;146609;700;46020;-78
2024/01/04 01:00:53;;;;;;;;;23.25;22.25;;;;;9.49;71.20;100678.03;146603;647;47016;-78
2024/01/04 01:03:51;;;;;;;;;23.00;21.75;;;;;9.60;71.23;100680.34;146603;571;48025;-78
2024/01/04 01:06:44;;;;;;;;;25.50;23.50;;;;;9.67;70.95;100688.50;146603;601;46016;-78
2024/01/04 01:09:39;;;;;;;;;25.00;23.00;;;;;9.71;70.20;100689.56;146604;571;46020;-79
2024/01/04 01:12:43;;;;;;;;;23.25;20.25;;;;;9.75;70.20;100688.00;146602;602;46917;-78
2024/01/04 01:15:39;;;;;;;;;20.50;17.75;;;;;9.74;69.76;100687.13;146606;691;47008;-78
2024/01/04 01:18:38;;;;;;;;;27.75;23.50;;;;;9.70;70.19;100690.38;146607;605;46017;-80
2024/01/04 01:21:36;;;;;;;;;26.50;25.00;;;;;9.63;70.82;100691.75;146607;579;46008;-81
2024/01/04 01:24:44;;;;;;;;;50.25;39.50;;;;;8.41;69.95;100490.97;146605;619;46016;-81
2024/01/04 01:27:45;;;;;;;;;29.75;26.75;;;;;9.55;70.66;100690.41;146607;574;47012;-80
2024/01/04 01:30:41;;;;;;;;;27.50;27.00;;;;;9.53;70.83;100697.19;146605;577;46016;-83
2024/01/04 01:33:34;;;;;;;;;34.75;31.50;;;;;9.49;71.58;100690.97;146607;714;46020;-89
2024/01/04 01:36:30;;;;;;;;;28.50;28.00;;;;;9.46;71.74;100693.38;146605;572;46025;-86
2024/01/04 01:39:24;;;;;;;;;37.25;31.75;;;;;9.42;71.29;100686.28;146600;640;47010;-83
2024/01/04 01:42:20;;;;;;;;;25.75;23.50;;;;;9.37;71.58;100673.88;146603;623;47010;-85
2024/01/04 01:45:14;;;;;;;;;20.00;17.75;;;;;9.29;72.67;100675.19;146611;610;46020;-85
2024/01/04 01:48:15;;;;;;;;;23.50;20.50;;;;;9.21;73.47;100665.25;146607;583;46017;-87
2024/01/04 01:51:10;;;;;;;;;31.25;24.75;;;;;9.15;74.43;100664.91;146609;645;46025;-86
2024/01/04 01:54:03;;;;;;;;;22.75;20.00;;;;;9.19;73.65;100659.12;146605;564;46016;-81
2024/01/04 01:57:00;;;;;;;;;21.25;20.25;;;;;9.25;73.21;100659.47;146607;663;47012;-82
2024/01/04 02:00:03;;;;;;;;;22.25;21.50;;;;;9.33;72.18;100661.59;146604;650;47010;-82
2024/01/04 02:02:56;;;;;;;;;17.00;16.00;;;;;9.33;72.65;100653.81;146605;603;48008;-83
2024/01/04 02:05:48;;;;;;;;;18.75;18.75;;;;;9.33;72.30;100669.34;146603;596;47016;-81
2024/01/04 02:08:56;;;;;;;;;15.50;14.50;;;;;7.29;71.82;100302.25;146599;584;47008;-80
2024/01/04 02:11:54;;;;;;;;;13.00;11.75;;;;;9.30;72.73;100644.19;146602;563;47016;-82
2024/01/04 02:14:58;;;;;;;;;14.50;13.50;;;;;9.28;72.39;100643.19;146604;569;46020;-82
2024/01/04 02:17:54;;;;;;;;;7.50;7.50;;;;;9.28;72.87;100643.19;146604;593;47010;-84
2024/01/04 02:20:51;;;;;;;;;12.00;10.00;;;;;9.28;72.80;100635.44;146616;585;46020;-82
2024/01/04 02:23:49;;;;;;;;;8.50;8.50;;;;;9.23;72.47;100632.63;146602;572;47011;-81
2024/01/04 02:26:52;;;;;;;;;;;;;;;;;;;;;
2024/01/04 02:29:47;;;;;;;;;6.75;6.75;;;;;9.16;73.34;100627.94;146617;577;46023;-76
2024/01/04 02:32:45;;;;;;;;;6.50;5.00;;;;;9.12;73.62;100625.94;146620;566;46008;-74
2024/01/04 02:35:49;;;;;;;;;4.75;4.75;;;;;9.12;73.69;100622.47;146616;582;47010;-74
2024/01/04 02:38:52;;;;;;;;;8.25;5.25;;;;;9.15;73.19;100620.94;146611;595;47008;-75
2024/01/04 02:41:47;;;;;;;;;6.75;6.00;;;;;9.15;73.68;100623.53;146611;585;46010;-75
2024/01/04 02:44:43;;;;;;;;;6.75;5.75;;;;;9.16;74.07;100611.50;146620;623;46049;-75
2024/01/04 02:47:43;;;;;;;;;7.75;7.50;;;;;9.17;74.35;100611.59;146616;575;47917;-75
2024/01/04 02:50:38;;;;;;;;;3.50;3.50;;;;;9.25;74.07;100615.50;146615;592;47008;-75
2024/01/04 02:53:31;;;;;;;;;7.25;7.25;;;;;9.33;73.72;100610.72;146617;611;47010;-75
2024/01/04 02:56:34;;;;;;;;;10.75;9.00;;;;;9.42;73.33;100618.97;146620;639;47008;-77
2024/01/04 02:59:32;;;;;;;;;15.75;13.50;;;;;9.49;72.48;100622.78;146615;571;47010;-76
2024/01/04 03:02:33;;;;;;;;;22.50;20.00;;;;;9.54;72.61;100616.16;146610;575;47008;-77
2024/01/04 03:05:28;;;;;;;;;30.50;26.50;;;;;9.58;72.26;100605.16;146605;657;48010;-83
2024/01/04 03:08:20;;;;;;;;;22.00;20.00;;;;;9.61;72.58;100602.72;146608;601;46020;-83
2024/01/04 03:11:30;;;;;;;;;27.50;24.50;;;;;9.58;71.97;100592.22;146610;596;47010;-85
2024/01/04 03:14:28;;;;;;;;;28.50;24.00;;;;;9.49;72.29;100583.97;146613;649;46008;-83
2024/01/04 03:17:22;;;;;;;;;20.50;20.00;;;;;9.41;72.86;100598.22;146609;573;47010;-83
2024/01/04 03:20:16;;;;;;;;;19.75;18.75;;;;;9.29;72.99;100593.25;146613;606;47008;-85
2024/01/04 03:23:12;;;;;;;;;18.50;14.00;;;;;9.23;72.63;100595.50;146607;615;46916;-85
2024/01/04 03:26:10;;;;;;;;;16.00;14.00;;;;;9.19;73.55;100589.28;146614;583;46008;-81
2024/01/04 03:29:08;;;;;;;;;11.75;10.25;;;;;9.18;74.30;100594.38;146606;577;46010;-92
2024/01/04 03:32:05;;;;;;;;;12.25;11.00;;;;;9.16;74.93;100589.13;146611;597;47021;-91
2024/01/04 03:35:01;;;;;;;;;21.00;18.75;;;;;9.19;74.56;100603.88;146606;667;46010;-82
2024/01/04 03:37:56;;;;;;;;;22.25;16.25;;;;;9.16;74.99;100583.94;146602;584;47008;-86
2024/01/04 03:40:51;;;;;;;;;12.75;12.75;;;;;9.22;74.37;100592.03;146602;634;47010;-85
2024/01/04 03:43:47;;;;;;;;;20.25;18.75;;;;;9.26;74.33;100587.91;146609;569;46008;-89
2024/01/04 03:46:42;;;;;;;;;22.00;22.00;;;;;9.30;74.50;100586.37;146605;569;46011;-87
2024/01/04 03:49:51;;;;;;;;;12.75;10.50;;;;;9.33;74.06;100582.25;146606;590;46020;-80
2024/01/04 03:52:49;;;;;;;;;12.50;10.75;;;;;9.34;74.03;100570.19;146601;733;47013;-88
2024/01/04 03:55:41;;;;;;;;;9.75;9.75;;;;;9.35;74.56;100574.59;146609;565;46008;-83
2024/01/04 03:58:38;;;;;;;;;16.75;16.25;;;;;9.42;74.76;100582.75;146606;587;48012;-83
2024/01/04 04:01:31;;;;;;;;;29.75;27.25;;;;;9.49;73.92;100579.66;146606;578;47008;-88
2024/01/04 04:04:32;;;;;;;;;22.75;20.00;;;;;9.62;73.73;100588.09;146605;571;47916;-87
2024/01/04 04:07:41;;;;;;;;;24.75;23.75;;;;;7.66;72.53;100226.00;146606;566;46020;-79
2024/01/04 04:10:45;;;;;;;;;35.25;29.75;;;;;9.73;72.32;100586.97;146603;639;46016;-84
2024/01/04 04:13:49;;;;;;;;;27.50;22.00;;;;;9.75;72.34;100600.91;146606;569;47026;-85
2024/01/04 04:16:50;;;;;;;;;19.00;16.50;;;;;9.73;72.79;100606.78;146597;651;49917;-84
2024/01/04 04:19:51;;;;;;;;;18.25;15.75;;;;;9.68;72.63;100622.94;146609;589;46020;-84
2024/01/04 04:22:51;;;;;;;;;19.50;16.25;;;;;9.63;72.79;100618.38;146599;606;48869;-84
2024/01/04 04:25:49;;;;;;;;;13.25;12.25;;;;;9.60;72.48;100632.03;146610;581;46020;-83
2024/01/04 04:28:46;;;;;;;;;37.75;28.00;;;;;9.61;73.42;100620.84;146604;580;46010;-83
2024/01/04 04:31:41;;;;;;;;;57.75;42.75;;;;;9.58;73.98;100610.34;146610;588;46009;-84
2024/01/04 04:34:45;;;;;;;;;8.25;6.00;;;;;9.62;73.52;100611.38;146603;652;46016;-83
2024/01/04 04:37:54;;;;;;;;;39.00;32.50;;;;;9.70;73.62;100608.41;146605;648;46027;-81
2024/01/04 04:40:59;;;;;;;;;25.00;22.50;;;;;9.81;72.69;100628.78;146605;579;46016;-83
2024/01/04 04:43:51;;;;;;;;;21.25;18.50;;;;;9.91;72.56;100633.66;146610;579;46020;-83
2024/01/04 04:46:48;;;;;;;;;46.75;37.75;;;;;10.00;72.17;100633.22;146602;579;47010;-83
2024/01/04 04:49:41;;;;;;;;;24.00;22.25;;;;;10.03;71.87;100638.56;146606;740;47008;-82
2024/01/04 04:52:37;;;;;;;;;15.50;13.00;;;;;10.05;72.33;100626.59;146602;608;47010;-83
2024/01/04 04:55:32;;;;;;;;;16.00;14.75;;;;;10.03;72.02;100623.94;146609;579;46020;-86
2024/01/04 04:58:29;;;;;;;;;13.50;12.25;;;;;10.07;72.06;100614.62;146601;593;48010;-81
2024/01/04 05:01:30;;;;;;;;;15.00;14.00;;;;;10.10;72.53;100622.53;146610;564;46021;-81
2024/01/04 05:04:25;;;;;;;;;14.00;11.75;;;;;10.14;72.52;100616.69;146605;577;46016;-81
2024/01/04 05:07:19;;;;;;;;;12.50;12.50;;;;;10.19;72.20;100617.84;146604;599;46008;-89
2024/01/04 05:10:21;;;;;;;;;13.00;11.50;;;;;10.23;72.90;100614.56;146606;574;46010;-84
2024/01/04 05:13:15;;;;;;;;;14.00;11.00;;;;;10.22;72.35;100617.06;146610;673;46020;-84
2024/01/04 05:16:21;;;;;;;;;19.75;15.50;;;;;8.13;71.77;100267.31;146604;606;46017;-83
2024/01/04 05:19:16;;;;;;;;;29.75;24.75;;;;;10.22;72.50;100630.94;146608;710;46012;-85
2024/01/04 05:22:12;;;;;;;;;26.00;24.75;;;;;10.24;72.37;100631.91;146603;603;46029;-85
2024/01/04 05:25:09;;;;;;;;;45.00;36.25;;;;;10.26;72.57;100637.16;146606;598;47020;-82
2024/01/04 05:28:11;;;;;;;;;24.00;23.25;;;;;10.24;72.96;100631.00;146602;639;46016;-83
2024/01/04 05:31:15;;;;;;;;;25.00;21.00;;;;;9.00;72.44;100424.47;146607;564;47010;-87
2024/01/04 05:34:10;;;;;;;;;21.50;20.50;;;;;10.09;73.52;100615.56;146606;581;46016;-80
2024/01/04 05:37:11;;;;;;;;;17.50;16.00;;;;;10.06;73.89;100618.91;146604;631;46008;-93
2024/01/04 05:40:21;;;;;;;;;26.25;24.00;;;;;10.07;72.95;100620.69;146604;590;46028;-81
2024/01/04 05:43:16;;;;;;;;;46.00;35.25;;;;;10.14;73.86;100617.59;146609;601;46020;-81
2024/01/04 05:46:08;;;;;;;;;30.00;27.00;;;;;10.23;73.25;100624.94;146605;583;46010;-80
2024/01/04 05:49:03;;;;;;;;;26.25;24.50;;;;;10.29;73.32;100622.69;146607;626;47008;-78
2024/01/04 05:51:58;;;;;;;;;19.00;16.00;;;;;10.34;73.03;100635.88;146601;566;48011;-78
2024/01/04 05:54:55;;;;;;;;;27.25;25.75;;;;;10.33;72.89;100627.22;146607;581;47008;-79
2024/01/04 05:57:50;;;;;;;;;21.75;18.50;;;;;10.34;73.19;100631.59;146602;585;48010;-77
2024/01/04 06:00:45;;;;;;;;;15.50;13.50;;;;;10.37;73.34;100630.84;146606;581;47008;-75
2024/01/04 06:03:40;;;;;;;;;13.00;10.50;;;;;10.40;73.31;100631.91;146602;585;47010;-87
2024/01/04 06:06:38;;;;;;;;;30.50;28.25;;;;;10.45;73.00;100624.34;146602;657;46048;-82
2024/01/04 06:09:35;;;;;;;;;43.75;35.00;;;;;10.53;73.50;100627.31;146607;642;46029;-81
2024/01/04 06:12:30;;;;;;;;;27.50;23.50;;;;;10.58;73.28;100623.25;146608;581;46020;-79
2024/01/04 06:15:29;;;;;;;;;21.00;20.75;;;;;10.63;73.88;100624.38;146603;587;46916;-82
2024/01/04 06:18:24;;;;;;;;;24.25;22.00;;;;;10.67;73.27;100622.81;146611;690;46008;-88
2024/01/04 06:21:16;;;;;;;;;34.50;30.75;;;;;10.73;73.29;100625.72;146605;594;46013;-82
2024/01/04 06:24:11;;;;;;;;;27.00;19.00;;;;;10.84;73.11;100625.44;146607;703;46012;-83
2024/01/04 06:27:14;;;;;;;;;27.00;24.75;;;;;10.92;72.85;100622.31;146606;585;46012;-82
2024/01/04 06:30:08;;;;;;;;;22.00;19.00;;;;;11.03;72.43;100624.63;146608;571;46008;-91
2024/01/04 06:33:02;;;;;;;;;16.00;14.50;;;;;11.14;72.21;100625.09;146608;570;47010;-93
2024/01/04 06:35:58;;;;;;;;;19.50;16.25;;;;;11.21;72.54;100623.69;146603;571;46020;-92
2024/01/04 06:38:53;;;;;;;;;25.75;24.75;;;;;11.26;72.49;100637.78;146600;591;46016;-83
2024/01/04 06:41:48;;;;;;;;;44.75;34.75;;;;;11.29;72.33;100625.81;146608;570;46020;-83
2024/01/04 06:44:46;;;;;;;;;50.50;41.50;;;;;11.31;72.31;100634.59;146601;567;47010;-90
2024/01/04 06:47:43;;;;;;;;;46.50;38.00;;;;;11.37;72.19;100630.47;146605;593;47020;-90
2024/01/04 06:50:36;;;;;;;;;72.00;58.25;;;;;11.41;72.23;100638.50;146602;598;46032;-86
2024/01/04 06:53:31;;;;;;;;;45.50;37.75;;;;;11.47;72.10;100625.81;146606;595;47012;-83
2024/01/04 06:56:30;;;;;;;;;46.50;35.25;;;;;11.54;72.71;100639.94;146604;659;46012;-79
2024/01/04 06:59:22;;;;;;;;;46.00;35.00;;;;;11.59;71.58;100637.53;146611;564;46020;-80
2024/01/04 07:02:24;;;;;;;;;54.75;43.75;;;;;11.63;71.18;100635.19;146605;602;46012;-81
2024/01/04 07:05:24;;;;;;;;;54.50;42.50;;;;;11.69;70.90;100631.97;146605;738;46021;-81
2024/01/04 07:08:24;;;;;;;;;80.67;71.33;;;;;11.73;70.89;100629.56;146605;589;47016;-78
2024/01/04 07:11:16;;;;;;;;;84.67;75.67;;;;;11.80;71.28;100635.91;146612;600;46026;-80
2024/01/04 07:14:15;;;;;;;;;67.75;53.50;;;;;11.87;70.99;100627.63;146608;631;47016;-79
2024/01/04 07:17:21;;;;;;;;;68.25;50.75;;;;;11.97;70.52;100632.41;146611;660;46008;-81
2024/01/04 07:20:22;;;;;;;;;76.33;63.33;;;;;12.04;70.36;100625.75;146608;566;46017;-79
2024/01/04 07:23:23;;;;;;;;;72.00;54.75;;;;;12.12;70.49;100632.19;146616;572;47020;-80
2024/01/04 07:26:18;;;;;;;;;67.75;51.25;;;;;12.22;71.39;100633.47;146603;590;48025;-87
2024/01/04 07:29:27;;;;;;;;;67.00;51.00;;;;;12.32;70.70;100638.25;146614;577;46021;-94
2024/01/04 07:32:20;;;;;;;;;66.50;51.25;;;;;12.45;70.60;100637.03;146608;638;46016;-86
2024/01/04 07:35:25;;;;;;;;;;;;;;;;;;;;;
2024/01/04 07:38:21;;;;;;;;;59.75;47.00;;;;;12.73;71.59;100630.41;146604;632;47030;-84
2024/01/04 07:41:27;;;;;;;;;71.75;60.00;;;;;12.94;70.59;100632.16;146608;571;47008;-82
2024/01/04 07:44:23;;;;;;;;;65.25;49.25;;;;;13.31;71.13;100636.25;146604;728;47012;-80
2024/01/04 07:47:15;;;;;;;;;64.50;50.25;;;;;13.85;70.06;100633.91;146607;569;47008;-89
2024/01/04 07:50:12;;;;;;;;;61.00;46.00;;;;;14.37;68.07;100639.22;146605;673;46916;-89
2024/01/04 07:53:07;;;;;;;;;85.33;77.00;;;;;14.85;65.75;100633.87;146606;656;47008;-83
2024/01/04 07:56:11;;;;;;;;;61.00;47.00;;;;;15.40;64.79;100630.41;146604;563;47010;-84
2024/01/04 07:59:26;;;;;;;;;32.25;29.50;;;;;15.88;62.98;100641.41;146607;572;47008;-89
2024/01/04 08:02:21;;;;;;;;;42.50;35.25;;;;;16.30;61.75;100634.72;146605;571;46030;-81
2024/01/04 08:05:19;;;;;;;;;45.00;36.50;;;;;16.66;60.61;100623.41;146602;592;46021;-83
2024/01/04 08:08:17;;;;;;;;;32.25;28.25;;;;;16.98;57.65;100621.62;146599;665;47019;-83
2024/01/04 08:11:09;;;;;;;;;41.00;33.50;;;;;17.20;57.03;100629.12;146606;566;47012;-82
2024/01/04 08:14:02;;;;;;;;;39.25;33.00;;;;;17.35;57.31;100623.31;146604;583;47016;-82
2024/01/04 08:17:05;;;;;;;;;44.75;37.00;;;;;17.53;57.90;100634.22;146608;636;46020;-81
2024/01/04 08:20:03;;;;;;;;;47.75;38.00;;;;;17.76;56.54;100641.72;146605;583;46028;-80
2024/01/04 08:23:06;;;;;;;;;25.50;23.25;;;;;17.93;56.46;100640.31;146604;597;48012;-79
2024/01/04 08:26:04;;;;;;;;;36.50;28.75;;;;;18.14;55.49;100639.88;146600;625;47017;-84
2024/01/04 08:28:56;;;;;;;;;34.00;29.25;;;;;18.32;55.53;100634.09;146610;616;46020;-80
2024/01/04 08:31:50;;;;;;;;;19.50;17.25;;;;;18.43;54.49;100635.16;146603;577;49016;-76
2024/01/04 08:34:55;;;;;;;;;13.00;12.25;;;;;18.51;55.64;100630.03;146602;652;47009;-78
2024/01/04 08:37:49;;;;;;;;;8.25;5.25;;;;;18.62;53.22;100627.59;146606;629;46016;-79
2024/01/04 08:40:47;;;;;;;;;15.00;11.00;;;;;18.74;53.02;100619.94;146616;696;46026;-80
2024/01/04 08:43:42;;;;;;;;;4.00;4.00;;;;;18.91;52.23;100614.97;146606;615;47035;-79
2024/01/04 08:46:40;;;;;;;;;7.00;4.00;;;;;19.04;51.30;100616.94;146612;573;48020;-81
2024/01/04 08:49:40;;;;;;;;;3.00;3.00;;;;;19.08;52.19;100615.22;146609;574;47017;-82
2024/01/04 08:52:35;;;;;;;;;3.00;3.00;;;;;19.11;51.04;100610.88;146616;627;46020;-80
2024/01/04 08:55:33;;;;;;;;;6.67;5.67;;;;;19.17;50.79;100607.47;146612;659;46013;-79
2024/01/04 08:58:28;;;;;;;;;3.00;2.67;;;;;19.22;51.49;100602.28;146614;596;47008;-78
2024/01/04 09:01:25;;;;;;;;;8.00;6.00;;;;;19.31;52.81;100600.66;146613;634;46010;-79
2024/01/04 09:04:23;;;;;;;;;3.33;3.00;;;;;19.46;49.90;100588.59;146602;584;46021;-79
2024/01/04 09:07:22;;;;;;;;;4.00;4.00;;;;;19.46;50.07;100578.94;146612;586;46916;-79
2024/01/04 09:10:14;;;;;;;;;5.00;5.00;;;;;19.58;50.13;100583.47;146617;569;46013;-82
2024/01/04 09:13:17;;;;;;;;;5.67;5.67;;;;;19.70;50.79;100564.38;146614;609;46016;-84
2024/01/04 09:16:12;;;;;;;;;3.00;3.00;;;;;19.84;49.49;100555.78;146616;618;46012;-80
2024/01/04 09:19:26;;;;;;;;;;;;;;;;;;;;;
2024/01/04 09:22:22;;;;;;;;;4.67;3.00;;;;;20.06;48.40;100545.44;146617;593;46020;-85
2024/01/04 09:28:27;;;;;;;;;5.00;2.33;;;;;20.10;49.51;100547.25;146617;577;46020;-82
2024/01/04 09:31:24;;;;;;;;;3.67;2.33;;;;;20.20;48.43;100542.94;146611;599;46028;-85
2024/01/04 09:34:24;;;;;;;;;4.00;2.00;;;;;20.33;48.85;100541.31;146603;569;47008;-84
2024/01/04 09:37:30;;;;;;;;;4.33;3.33;;;;;20.47;51.02;100542.31;146608;610;47012;-84
2024/01/04 09:40:25;;;;;;;;;2.67;2.67;;;;;20.61;48.46;100537.16;146615;585;47008;-83
2024/01/04 09:43:21;;;;;;;;;4.00;4.00;;;;;20.66;48.14;100522.28;146610;598;47012;-82
2024/01/04 09:46:26;;;;;;;;;2.33;2.00;;;;;20.75;49.48;100532.91;146618;617;46020;-83
2024/01/04 09:49:25;;;;;;;;;3.00;2.00;;;;;20.84;47.35;100522.41;146612;564;47011;-82
2024/01/04 09:52:24;;;;;;;;;6.67;4.67;;;;;20.92;47.23;100515.41;146616;574;46008;-84
2024/01/04 09:55:18;;;;;;;;;1.67;1.33;;;;;20.93;47.50;100525.09;146608;579;46017;-83
2024/01/04 09:58:19;;;;;;;;;5.67;4.00;;;;;20.88;47.75;100518.03;146615;646;46032;-72
2024/01/04 10:01:22;;;;;;;;;13.50;11.25;;;;;20.84;46.60;100510.97;146612;566;46020;-86
2024/01/04 10:04:29;;;;;;;;;5.67;5.67;;;;;20.77;49.87;100508.28;146603;619;47008;-85
2024/01/04 10:07:34;;;;;;;;;8.00;7.00;;;;;20.77;49.76;100510.03;146612;628;46016;-84
2024/01/04 10:10:32;;;;;;;;;6.67;5.67;;;;;20.77;47.74;100510.91;146616;618;47008;-89
2024/01/04 10:13:28;;;;;;;;;5.67;5.67;;;;;20.77;47.44;100510.03;146611;566;47916;-86
2024/01/04 10:16:24;;;;;;;;;7.00;7.00;;;;;20.74;48.16;100510.91;146615;586;46020;-87
2024/01/04 10:19:16;;;;;;;;;5.33;4.33;;;;;20.66;47.15;100495.94;146611;582;46019;-86
2024/01/04 10:22:15;;;;;;;;;10.33;9.00;;;;;20.65;51.07;100500.31;146618;587;46020;-88
2024/01/04 10:25:44;;;;;;;;;7.00;6.00;;;;;19.04;50.61;100196.50;146610;613;46028;-87
2024/01/04 10:28:49;;;;;;;;;6.33;5.00;;;;;20.80;49.12;100496.00;146617;625;46008;-91
2024/01/04 10:31:46;;;;;;;;;4.67;4.00;;;;;20.74;47.87;100492.47;146611;582;46010;-88
2024/01/04 10:34:41;;;;;;;;;5.00;4.67;;;;;20.77;48.22;100483.69;146602;647;47008;-87
2024/01/04 10:37:36;;;;;;;;;4.00;4.00;;;;;20.92;47.04;100488.19;146607;569;47010;-87
2024/01/04 10:40:33;;;;;;;;;5.33;5.00;;;;;21.04;48.37;100482.97;146614;565;46021;-87
2024/01/04 10:43:25;;;;;;;;;6.50;6.00;;;;;21.06;47.75;100489.16;146609;565;46016;-84
2024/01/04 10:46:31;;;;;;;;;4.33;3.67;;;;;21.11;49.88;100489.16;146616;578;47008;-85
2024/01/04 10:49:33;;;;;;;;;4.00;2.33;;;;;21.20;47.62;100478.63;146612;603;47010;-86
2024/01/04 10:52:34;;;;;;;;;7.00;5.00;;;;;21.28;47.63;100471.66;146616;601;46020;-84
2024/01/04 10:55:45;;;;;;;;;;;;;;;;;;;;;
2024/01/04 10:58:48;;;;;;;;;3.67;3.67;;;;;21.42;43.87;100459.41;146618;612;46020;-86
2024/01/04 11:01:44;;;;;;;;;6.00;6.00;;;;;21.47;44.35;100450.63;146610;580;46013;-86
2024/01/04 11:04:39;;;;;;;;;8.00;5.67;;;;;21.50;41.88;100454.16;146604;612;46020;-84
2024/01/04 11:07:32;;;;;;;;;7.00;6.00;;;;;21.53;42.63;100448.88;146604;603;47010;-84
2024/01/04 11:10:32;;;;;;;;;6.00;5.00;;;;;21.56;41.22;100438.34;146615;602;47008;-84
2024/01/04 11:13:25;;;;;;;;;3.00;3.00;;;;;21.65;41.85;100448.91;146612;575;47010;-82
2024/01/04 11:17:18;;;;;;;;;2.00;2.00;;;;;20.14;46.79;100175.25;146616;698;46020;-84
2024/01/04 11:20:48;;;;;;;;;2.00;1.00;;;;;20.18;44.97;100160.34;146610;587;46036;-83
2024/01/04 11:24:08;;;;;;;;;7.00;4.33;;;;;20.47;43.19;100205.22;146616;599;47013;-75
2024/01/04 11:27:20;;;;;;;;;3.00;3.00;;;;;21.75;42.04;100433.97;146612;622;46010;-82
2024/01/04 11:30:21;;;;;;;;;6.00;5.33;;;;;21.63;39.13;100426.91;146618;584;47008;-81
2024/01/04 11:33:19;;;;;;;;;5.33;5.00;;;;;21.57;38.66;100416.34;146616;572;46026;-82
2024/01/04 11:36:23;;;;;;;;;2.67;2.67;;;;;21.55;42.06;100407.53;146613;692;46020;-81
2024/01/04 11:39:32;;;;;;;;;7.67;6.33;;;;;21.57;40.18;100397.00;146616;585;47018;-81
2024/01/04 11:42:48;;;;;;;;;6.00;5.00;;;;;21.61;40.41;100386.44;146621;573;47012;-79
2024/01/04 11:46:02;;;;;;;;;11.67;7.00;;;;;19.60;40.07;100029.47;146617;584;46016;-77
2024/01/04 11:49:36;;;;;;;;;6.00;5.00;;;;;19.93;39.04;100097.09;146617;613;47023;-78
2024/01/04 11:52:36;;;;;;;;;6.00;5.67;;;;;21.54;39.43;100363.59;146615;600;46016;-81
2024/01/04 11:55:35;;;;;;;;;4.00;4.00;;;;;21.57;39.49;100358.31;146619;588;47021;-81
2024/01/04 11:58:45;;;;;;;;;10.33;6.00;;;;;21.60;40.61;100350.41;146616;636;46010;-78
2024/01/04 12:01:52;;;;;;;;;6.00;5.00;;;;;21.68;40.38;100351.28;146622;619;46009;-79
2024/01/04 12:04:47;;;;;;;;;4.00;4.00;;;;;21.84;40.45;100356.56;146616;596;47012;-81
2024/01/04 12:07:31;;;;;;;;;6.00;5.00;;;;;21.95;38.92;100346.84;146712;564;46023;-81
2024/01/04 12:10:24;;;;;;;;;5.00;3.67;;;;;22.04;39.06;100343.34;146621;569;47012;-81
2024/01/04 12:13:21;;;;;;;;;7.00;5.67;;;;;22.16;38.95;100339.78;146626;595;46020;-80
2024/01/04 12:16:19;;;;;;;;;8.67;6.67;;;;;22.26;39.19;100347.72;146622;574;47014;-81
2024/01/04 12:19:23;;;;;;;;;4.33;4.33;;;;;22.38;39.90;100344.16;146626;633;47020;-79
2024/01/04 12:22:26;;;;;;;;;3.33;3.33;;;;;22.50;38.41;100341.47;146623;630;46017;-80
2024/01/04 12:25:18;;;;;;;;;5.00;5.00;;;;;22.59;37.34;100336.16;146629;579;46010;-82
2024/01/04 12:28:21;;;;;;;;;5.67;5.67;;;;;22.64;37.61;100333.47;146625;608;46016;-80
2024/01/04 12:31:19;;;;;;;;;5.33;4.00;;;;;22.73;38.71;100336.09;146627;574;48021;-80
2024/01/04 12:34:28;;;;;;;;;6.33;4.33;;;;;22.90;38.06;100327.22;146625;590;46012;-79
2024/01/04 12:37:26;;;;;;;;;4.33;4.33;;;;;23.04;38.39;100335.97;146627;587;46021;-81
2024/01/04 12:40:24;;;;;;;;;4.00;3.00;;;;;23.15;37.22;100334.12;146625;594;47012;-78
2024/01/04 12:43:24;;;;;;;;;5.33;2.33;;;;;23.18;37.14;100322.66;146630;585;46010;-81
2024/01/04 12:46:27;;;;;;;;;5.00;3.67;;;;;23.19;36.89;100313.84;146625;694;47012;-82
2024/01/04 12:49:32;;;;;;;;;4.00;4.00;;;;;23.36;38.04;100309.28;146633;657;46010;-78
2024/01/04 12:52:28;;;;;;;;;5.00;2.33;;;;;23.48;37.34;100306.53;146623;598;46016;-82
2024/01/04 12:55:31;;;;;;;;;5.67;5.67;;;;;23.63;39.17;100304.66;146629;592;46010;-80
2024/01/04 12:58:38;;;;;;;;;4.00;3.00;;;;;23.63;35.29;100299.38;146622;589;46016;-77
2024/01/04 13:01:39;;;;;;;;;2.67;2.67;;;;;23.51;35.40;100300.34;146626;565;46030;-80
2024/01/04 13:04:37;;;;;;;;;4.00;4.00;;;;;23.48;37.66;100297.72;146621;593;46016;-80
2024/01/04 13:07:30;;;;;;;;;5.67;5.00;;;;;23.58;36.67;100304.69;146644;590;45021;-78
2024/01/04 13:10:30;;;;;;;;;2.33;2.33;;;;;23.75;37.91;100304.59;146640;584;45016;-78
2024/01/04 13:13:31;;;;;;;;;1.00;1.00;;;;;23.80;35.62;100296.59;146643;623;45021;-77
2024/01/04 13:16:28;;;;;;;;;3.33;2.33;;;;;23.81;35.78;100301.87;146638;580;45016;-78
2024/01/04 13:19:28;;;;;;;;;2.00;2.00;;;;;23.78;36.65;100286.03;146640;610;47020;-78
2024/01/04 13:22:20;;;;;;;;;2.00;2.00;;;;;23.82;36.18;100286.88;146640;699;46918;-78
2024/01/04 13:25:21;;;;;;;;;4.33;3.00;;;;;23.90;36.95;100291.22;146641;582;46014;-78
2024/01/04 13:28:13;;;;;;;;;3.00;3.00;;;;;23.91;35.41;100271.75;146640;587;45013;-78
2024/01/04 13:31:14;;;;;;;;;4.00;3.00;;;;;23.90;37.21;100274.44;146644;643;46010;-78
2024/01/04 13:34:09;;;;;;;;;3.00;3.00;;;;;24.00;36.31;100261.97;146637;594;45016;-77
2024/01/04 13:37:08;;;;;;;;;4.00;2.67;;;;;24.13;36.13;100260.94;146645;593;45028;-75
2024/01/04 13:40:06;;;;;;;;;3.00;3.00;;;;;24.19;36.28;100247.63;146637;569;47016;-75
2024/01/04 13:43:11;;;;;;;;;4.00;3.00;;;;;24.19;36.38;100245.84;146641;671;46011;-81
2024/01/04 13:46:07;;;;;;;;;4.00;4.00;;;;;24.26;37.37;100235.16;146641;641;45012;-79
2024/01/04 13:48:59;;;;;;;;;6.33;5.00;;;;;24.40;36.94;100231.44;146644;564;45020;-79
2024/01/04 13:51:41;;;;;;;;;6.67;6.00;;;;;24.47;35.00;100231.41;146712;564;45023;-78
2024/01/04 13:54:37;;;;;;;;;11.00;9.00;;;;;24.62;37.47;100224.13;146624;566;47012;-79